sensor_id;sensor_type;location;lat;lon;timestamp;pressure;altitude;pressure_sealevel;temperature;humidity
8366;BME280;4220;42.502;24.188;2022-11-11T00:00:03;96284.13;;;7.39;100.00
8366;BME280;4220;42.502;24.188;2022-11-11T00:02:31;96275.06;;;7.42;100.00
8366;BME280;4220;42.502;24.188;2022-11-11T00:04:58;96276.00;;;7.49;100.00
8366;BME280;4220;42.502;24.188;2022-11-11T00:07:25;96272.00;;;7.53;100.00
8366;BME280;4220;42.502;24.188;2022-11-11T00:09:52;96281.59;;;7.54;100.00
8366;BME280;4220;42.502;24.188;2022-11-11T00:12:20;96275.00;;;7.50;100.00
8366;BME280;4220;42.502;24.188;2022-11-11T00:14:47;96271.72;;;7.48;100.00
8366;BME280;4220;42.502;24.188;2022-11-11T00:17:14;96277.69;;;7.42;100.00
8366;BME280;4220;42.502;24.188;2022-11-11T00:19:58;96270.88;;;7.47;100.00
8366;BME280;4220;42.502;24.188;2022-11-11T00:22:42;96274.00;;;7.51;100.00
8366;BME280;4220;42.502;24.188;2022-11-11T00:25:27;96268.03;;;7.26;100.00
8366;BME280;4220;42.502;24.188;2022-11-11T00:27:55;96267.81;;;7.36;100.00
8366;BME280;4220;42.502;24.188;2022-11-11T00:30:22;96262.19;;;7.39;100.00
8366;BME280;4220;42.502;24.188;2022-11-11T00:32:49;96256.09;;;7.38;100.00
8366;BME280;4220;42.502;24.188;2022-11-11T00:35:16;96266.66;;;7.38;100.00
8366;BME280;4220;42.502;24.188;2022-11-11T00:38:05;96264.19;;;7.37;100.00
8366;BME280;4220;42.502;24.188;2022-11-11T00:40:33;96260.38;;;7.39;100.00
8366;BME280;4220;42.502;24.188;2022-11-11T00:43:01;96261.59;;;7.29;100.00
8366;BME280;4220;42.502;24.188;2022-11-11T00:45:28;96268.16;;;7.33;100.00
8366;BME280;4220;42.502;24.188;2022-11-11T00:47:54;96253.06;;;7.18;100.00
8366;BME280;4220;42.502;24.188;2022-11-11T00:50:53;96244.47;;;7.24;100.00
8366;BME280;4220;42.502;24.188;2022-11-11T00:53:28;96231.38;;;7.00;100.00
8366;BME280;4220;42.502;24.188;2022-11-11T00:55:56;96259.06;;;7.04;100.00
8366;BME280;4220;42.502;24.188;2022-11-11T00:58:24;96248.81;;;7.09;100.00
8366;BME280;4220;42.502;24.188;2022-11-11T01:00:52;96257.38;;;7.11;100.00
8366;BME280;4220;42.502;24.188;2022-11-11T01:03:19;96249.50;;;7.03;100.00
8366;BME280;4220;42.502;24.188;2022-11-11T01:05:46;96257.59;;;7.02;100.00
8366;BME280;4220;42.502;24.188;2022-11-11T01:08:14;96253.75;;;7.12;100.00
8366;BME280;4220;42.502;24.188;2022-11-11T01:10:40;96256.53;;;7.19;100.00
8366;BME280;4220;42.502;24.188;2022-11-11T01:13:14;96247.47;;;7.13;100.00
8366;BME280;4220;42.502;24.188;2022-11-11T01:15:44;96259.69;;;7.06;100.00
8366;BME280;4220;42.502;24.188;2022-11-11T01:18:13;96230.81;;;6.74;100.00
8366;BME280;4220;42.502;24.188;2022-11-11T01:20:40;96249.19;;;6.98;100.00
8366;BME280;4220;42.502;24.188;2022-11-11T01:23:08;96257.41;;;7.03;100.00
8366;BME280;4220;42.502;24.188;2022-11-11T01:25:36;96251.13;;;7.12;100.00
8366;BME280;4220;42.502;24.188;2022-11-11T01:28:04;96246.63;;;7.21;100.00
8366;BME280;4220;42.502;24.188;2022-11-11T01:30:32;96244.53;;;7.08;100.00
8366;BME280;4220;42.502;24.188;2022-11-11T01:33:00;96239.88;;;7.18;100.00
8366;BME280;4220;42.502;24.188;2022-11-11T01:35:28;96239.03;;;7.18;100.00
8366;BME280;4220;42.502;24.188;2022-11-11T01:37:55;96246.63;;;7.21;100.00
8366;BME280;4220;42.502;24.188;2022-11-11T01:40:22;96224.25;;;7.09;100.00
8366;BME280;4220;42.502;24.188;2022-11-11T01:42:51;96258.84;;;7.14;100.00
8366;BME280;4220;42.502;24.188;2022-11-11T01:45:47;96242.75;;;7.01;100.00
8366;BME280;4220;42.502;24.188;2022-11-11T01:48:20;96241.25;;;7.06;100.00
8366;BME280;4220;42.502;24.188;2022-11-11T01:51:14;96253.47;;;6.99;100.00
8366;BME280;4220;42.502;24.188;2022-11-11T01:53:41;96247.25;;;6.92;100.00
8366;BME280;4220;42.502;24.188;2022-11-11T01:56:09;96252.47;;;7.00;100.00
8366;BME280;4220;42.502;24.188;2022-11-11T01:58:36;96249.34;;;7.05;100.00
8366;BME280;4220;42.502;24.188;2022-11-11T02:01:04;96247.81;;;7.10;100.00
8366;BME280;4220;42.502;24.188;2022-11-11T02:03:35;96245.84;;;7.12;100.00
8366;BME280;4220;42.502;24.188;2022-11-11T02:06:04;96253.38;;;7.15;100.00
8366;BME280;4220;42.502;24.188;2022-11-11T02:08:32;96253.06;;;7.18;100.00
8366;BME280;4220;42.502;24.188;2022-11-11T02:11:01;96251.88;;;7.21;100.00
8366;BME280;4220;42.502;24.188;2022-11-11T02:13:30;96243.47;;;7.17;100.00
8366;BME280;4220;42.502;24.188;2022-11-11T02:16:15;96241.69;;;7.18;100.00
8366;BME280;4220;42.502;24.188;2022-11-11T02:18:43;96247.78;;;7.18;100.00
8366;BME280;4220;42.502;24.188;2022-11-11T02:21:13;96255.03;;;7.16;100.00
8366;BME280;4220;42.502;24.188;2022-11-11T02:23:51;96255.78;;;7.02;100.00
8366;BME280;4220;42.502;24.188;2022-11-11T02:26:19;96253.78;;;7.04;100.00
8366;BME280;4220;42.502;24.188;2022-11-11T02:28:48;96248.84;;;7.01;100.00
8366;BME280;4220;42.502;24.188;2022-11-11T02:31:16;96260.75;;;6.97;100.00
8366;BME280;4220;42.502;24.188;2022-11-11T02:33:43;96250.53;;;6.86;100.00
8366;BME280;4220;42.502;24.188;2022-11-11T02:36:13;96255.03;;;6.78;100.00
8366;BME280;4220;42.502;24.188;2022-11-11T02:38:40;96247.59;;;6.81;100.00
8366;BME280;4220;42.502;24.188;2022-11-11T02:41:10;96260.75;;;6.97;100.00
8366;BME280;4220;42.502;24.188;2022-11-11T02:43:54;96258.94;;;6.90;100.00
8366;BME280;4220;42.502;24.188;2022-11-11T02:46:21;96265.00;;;6.98;100.00
8366;BME280;4220;42.502;24.188;2022-11-11T02:48:47;96246.59;;;6.90;100.00
8366;BME280;4220;42.502;24.188;2022-11-11T02:51:14;96260.75;;;6.97;100.00
8366;BME280;4220;42.502;24.188;2022-11-11T02:53:41;96271.63;;;6.86;100.00
8366;BME280;4220;42.502;24.188;2022-11-11T02:56:09;96259.78;;;6.90;100.00
8366;BME280;4220;42.502;24.188;2022-11-11T02:58:36;96211.41;;;6.59;100.00
8366;BME280;4220;42.502;24.188;2022-11-11T03:01:03;96249.09;;;6.76;100.00
8366;BME280;4220;42.502;24.188;2022-11-11T03:03:30;96263.06;;;6.84;100.00
8366;BME280;4220;42.502;24.188;2022-11-11T03:05:56;96256.81;;;6.85;100.00
8366;BME280;4220;42.502;24.188;2022-11-11T03:08:23;96249.41;;;6.81;100.00
8366;BME280;4220;42.502;24.188;2022-11-11T03:10:50;96250.06;;;6.83;100.00
8366;BME280;4220;42.502;24.188;2022-11-11T03:13:18;96252.53;;;6.84;100.00
8366;BME280;4220;42.502;24.188;2022-11-11T03:15:45;96244.44;;;6.86;100.00
8366;BME280;4220;42.502;24.188;2022-11-11T03:18:12;96247.75;;;6.88;100.00
8366;BME280;4220;42.502;24.188;2022-11-11T03:20:37;96253.50;;;6.83;100.00
8366;BME280;4220;42.502;24.188;2022-11-11T03:23:22;96250.94;;;6.67;100.00
8366;BME280;4220;42.502;24.188;2022-11-11T03:25:48;96247.13;;;6.70;100.00
8366;BME280;4220;42.502;24.188;2022-11-11T03:28:18;96241.56;;;6.65;100.00
8366;BME280;4220;42.502;24.188;2022-11-11T03:30:47;96252.75;;;6.58;100.00
8366;BME280;4220;42.502;24.188;2022-11-11T03:33:14;96242.25;;;6.42;100.00
8366;BME280;4220;42.502;24.188;2022-11-11T03:35:42;96247.38;;;6.28;100.00
8366;BME280;4220;42.502;24.188;2022-11-11T03:38:11;96197.84;;;5.83;100.00
8366;BME280;4220;42.502;24.188;2022-11-11T03:40:41;96255.47;;;6.02;100.00
8366;BME280;4220;42.502;24.188;2022-11-11T03:43:08;96250.53;;;5.99;100.00
8366;BME280;4220;42.502;24.188;2022-11-11T03:45:36;96246.25;;;5.98;100.00
8366;BME280;4220;42.502;24.188;2022-11-11T03:48:04;96242.94;;;6.20;100.00
8366;BME280;4220;42.502;24.188;2022-11-11T03:50:30;96252.84;;;6.10;100.00
8366;BME280;4220;42.502;24.188;2022-11-11T03:52:57;96248.53;;;6.17;100.00
8366;BME280;4220;42.502;24.188;2022-11-11T03:55:24;96249.69;;;6.31;100.00
8366;BME280;4220;42.502;24.188;2022-11-11T03:57:52;96253.13;;;6.39;100.00
8366;BME280;4220;42.502;24.188;2022-11-11T04:00:20;96253.97;;;6.40;100.00
8366;BME280;4220;42.502;24.188;2022-11-11T04:02:49;96249.00;;;6.53;100.00
8366;BME280;4220;42.502;24.188;2022-11-11T04:05:33;96207.22;;;6.26;100.00
8366;BME280;4220;42.502;24.188;2022-11-11T04:08:19;96262.50;;;6.58;100.00
8366;BME280;4220;42.502;24.188;2022-11-11T04:11:06;96256.06;;;6.61;100.00
8366;BME280;4220;42.502;24.188;2022-11-11T04:13:34;96256.41;;;6.49;100.00
8366;BME280;4220;42.502;24.188;2022-11-11T04:16:30;96241.47;;;6.26;100.00
8366;BME280;4220;42.502;24.188;2022-11-11T04:18:58;96238.47;;;6.37;100.00
8366;BME280;4220;42.502;24.188;2022-11-11T04:21:43;96249.69;;;6.31;100.00
8366;BME280;4220;42.502;24.188;2022-11-11T04:24:10;96248.19;;;6.44;100.00
8366;BME280;4220;42.502;24.188;2022-11-11T04:26:56;96254.59;;;6.58;100.00
8366;BME280;4220;42.502;24.188;2022-11-11T04:29:23;96247.84;;;6.39;100.00
8366;BME280;4220;42.502;24.188;2022-11-11T04:31:59;96257.56;;;6.55;100.00
8366;BME280;4220;42.502;24.188;2022-11-11T04:34:46;96245.34;;;6.62;100.00
8366;BME280;4220;42.502;24.188;2022-11-11T04:37:14;96256.84;;;6.69;100.00
8366;BME280;4220;42.502;24.188;2022-11-11T04:39:41;96258.84;;;6.75;100.00
8366;BME280;4220;42.502;24.188;2022-11-11T04:42:27;96260.97;;;6.80;100.00
8366;BME280;4220;42.502;24.188;2022-11-11T04:44:56;96264.06;;;6.83;100.00
8366;BME280;4220;42.502;24.188;2022-11-11T04:47:52;96248.09;;;6.85;100.00
8366;BME280;4220;42.502;24.188;2022-11-11T04:50:21;96254.31;;;7.31;100.00
8366;BME280;4220;42.502;24.188;2022-11-11T04:52:48;96238.97;;;7.34;100.00
8366;BME280;4220;42.502;24.188;2022-11-11T04:55:15;96248.13;;;7.46;100.00
8366;BME280;4220;42.502;24.188;2022-11-11T04:58:00;96257.38;;;7.42;100.00
8366;BME280;4220;42.502;24.188;2022-11-11T05:00:27;96256.16;;;7.53;100.00
8366;BME280;4220;42.502;24.188;2022-11-11T05:02:54;96259.59;;;7.61;100.00
8366;BME280;4220;42.502;24.188;2022-11-11T05:05:41;96268.53;;;7.83;100.00
8366;BME280;4220;42.502;24.188;2022-11-11T05:08:25;96259.59;;;8.29;100.00
8366;BME280;4220;42.502;24.188;2022-11-11T05:11:09;96260.19;;;8.39;100.00
8366;BME280;4220;42.502;24.188;2022-11-11T05:13:35;96268.06;;;8.62;100.00
8366;BME280;4220;42.502;24.188;2022-11-11T05:16:23;96275.63;;;8.80;100.00
8366;BME280;4220;42.502;24.188;2022-11-11T05:19:09;96278.75;;;8.98;100.00
8366;BME280;4220;42.502;24.188;2022-11-11T05:21:57;96282.84;;;9.15;100.00
8366;BME280;4220;42.502;24.188;2022-11-11T05:24:26;96282.47;;;9.33;100.00
8366;BME280;4220;42.502;24.188;2022-11-11T05:27:11;96289.66;;;9.53;100.00
8366;BME280;4220;42.502;24.188;2022-11-11T05:29:37;96287.00;;;9.53;100.00
8366;BME280;4220;42.502;24.188;2022-11-11T05:32:06;96292.06;;;8.90;100.00
8366;BME280;4220;42.502;24.188;2022-11-11T05:34:33;96301.47;;;8.92;100.00
8366;BME280;4220;42.502;24.188;2022-11-11T05:37:01;96300.00;;;8.90;100.00
8366;BME280;4220;42.502;24.188;2022-11-11T05:39:28;96303.03;;;8.87;100.00
8366;BME280;4220;42.502;24.188;2022-11-11T05:41:55;96302.56;;;8.98;100.00
8366;BME280;4220;42.502;24.188;2022-11-11T05:44:22;96306.88;;;8.99;100.00
8366;BME280;4220;42.502;24.188;2022-11-11T05:46:48;96306.59;;;9.23;100.00
8366;BME280;4220;42.502;24.188;2022-11-11T05:49:15;96302.56;;;9.27;100.00
8366;BME280;4220;42.502;24.188;2022-11-11T05:51:42;96309.31;;;9.30;100.00
8366;BME280;4220;42.502;24.188;2022-11-11T05:54:11;96318.66;;;9.76;100.00
8366;BME280;4220;42.502;24.188;2022-11-11T05:56:38;96311.66;;;10.04;100.00
8366;BME280;4220;42.502;24.188;2022-11-11T05:59:06;96306.94;;;10.21;100.00
8366;BME280;4220;42.502;24.188;2022-11-11T06:01:33;96315.78;;;10.49;100.00
8366;BME280;4220;42.502;24.188;2022-11-11T06:04:00;96329.53;;;10.59;100.00
8366;BME280;4220;42.502;24.188;2022-11-11T06:06:27;96318.16;;;10.65;100.00
8366;BME280;4220;42.502;24.188;2022-11-11T06:08:54;96324.78;;;10.76;100.00
8366;BME280;4220;42.502;24.188;2022-11-11T06:11:22;96342.16;;;10.78;100.00
8366;BME280;4220;42.502;24.188;2022-11-11T06:13:50;96373.44;;;10.83;100.00
8366;BME280;4220;42.502;24.188;2022-11-11T06:16:16;96334.00;;;10.80;100.00
8366;BME280;4220;42.502;24.188;2022-11-11T06:18:43;96337.09;;;10.83;100.00
8366;BME280;4220;42.502;24.188;2022-11-11T06:21:10;96323.25;;;10.88;100.00
8366;BME280;4220;42.502;24.188;2022-11-11T06:23:37;96315.69;;;10.91;100.00
8366;BME280;4220;42.502;24.188;2022-11-11T06:26:05;96330.03;;;10.97;100.00
8366;BME280;4220;42.502;24.188;2022-11-11T06:28:44;96328.78;;;10.93;100.00
8366;BME280;4220;42.502;24.188;2022-11-11T06:31:13;96331.28;;;11.01;100.00
8366;BME280;4220;42.502;24.188;2022-11-11T06:33:40;96344.25;;;11.10;100.00
8366;BME280;4220;42.502;24.188;2022-11-11T06:36:10;96360.16;;;11.10;100.00
8366;BME280;4220;42.502;24.188;2022-11-11T06:38:37;96386.28;;;11.07;100.00
8366;BME280;4220;42.502;24.188;2022-11-11T06:41:04;96374.69;;;11.14;100.00
8366;BME280;4220;42.502;24.188;2022-11-11T06:43:31;96358.16;;;11.19;100.00
8366;BME280;4220;42.502;24.188;2022-11-11T06:45:59;96350.81;;;11.21;100.00
8366;BME280;4220;42.502;24.188;2022-11-11T06:48:27;96314.78;;;11.05;100.00
8366;BME280;4220;42.502;24.188;2022-11-11T06:50:59;96360.72;;;11.34;100.00
8366;BME280;4220;42.502;24.188;2022-11-11T06:53:26;96364.63;;;11.38;100.00
8366;BME280;4220;42.502;24.188;2022-11-11T06:55:54;96357.34;;;11.53;100.00
8366;BME280;4220;42.502;24.188;2022-11-11T06:58:21;96324.44;;;11.47;100.00
8366;BME280;4220;42.502;24.188;2022-11-11T07:00:48;96363.72;;;11.93;100.00
8366;BME280;4220;42.502;24.188;2022-11-11T07:03:18;96366.16;;;11.88;100.00
8366;BME280;4220;42.502;24.188;2022-11-11T07:05:46;96389.91;;;11.61;100.00
8366;BME280;4220;42.502;24.188;2022-11-11T07:08:14;96325.88;;;11.15;100.00
8366;BME280;4220;42.502;24.188;2022-11-11T07:10:43;96378.53;;;11.40;100.00
8366;BME280;4220;42.502;24.188;2022-11-11T07:13:11;96376.03;;;11.32;100.00
8366;BME280;4220;42.502;24.188;2022-11-11T07:15:38;96350.13;;;11.40;100.00
8366;BME280;4220;42.502;24.188;2022-11-11T07:18:05;96352.63;;;11.48;100.00
8366;BME280;4220;42.502;24.188;2022-11-11T07:20:33;96370.22;;;11.49;100.00
8366;BME280;4220;42.502;24.188;2022-11-11T07:23:00;96342.44;;;11.52;100.00
8366;BME280;4220;42.502;24.188;2022-11-11T07:25:27;96360.00;;;11.53;100.00
8366;BME280;4220;42.502;24.188;2022-11-11T07:27:54;96353.06;;;11.52;100.00
8366;BME280;4220;42.502;24.188;2022-11-11T07:30:21;96360.00;;;11.53;100.00
8366;BME280;4220;42.502;24.188;2022-11-11T07:32:49;96372.28;;;11.54;100.00
8366;BME280;4220;42.502;24.188;2022-11-11T07:35:17;96358.78;;;11.49;100.00
8366;BME280;4220;42.502;24.188;2022-11-11T07:37:45;96376.75;;;11.47;100.00
8366;BME280;4220;42.502;24.188;2022-11-11T07:40:14;96312.69;;;11.29;100.00
8366;BME280;4220;42.502;24.188;2022-11-11T07:42:42;96368.41;;;11.56;100.00
8366;BME280;4220;42.502;24.188;2022-11-11T07:45:10;96367.81;;;11.61;100.00
8366;BME280;4220;42.502;24.188;2022-11-11T07:47:37;96377.03;;;11.65;100.00
8366;BME280;4220;42.502;24.188;2022-11-11T07:50:06;96368.72;;;11.68;100.00
8366;BME280;4220;42.502;24.188;2022-11-11T07:52:33;96370.97;;;11.71;100.00
8366;BME280;4220;42.502;24.188;2022-11-11T07:55:03;96372.06;;;11.83;100.00
8366;BME280;4220;42.502;24.188;2022-11-11T07:57:30;96373.72;;;11.91;100.00
8366;BME280;4220;42.502;24.188;2022-11-11T07:59:57;96378.59;;;11.87;100.00
8366;BME280;4220;42.502;24.188;2022-11-11T08:02:23;96374.88;;;11.75;100.00
8366;BME280;4220;42.502;24.188;2022-11-11T08:04:50;96371.09;;;11.63;100.00
8366;BME280;4220;42.502;24.188;2022-11-11T08:07:17;96374.78;;;11.62;100.00
8366;BME280;4220;42.502;24.188;2022-11-11T08:09:44;96373.38;;;11.66;100.00
8366;BME280;4220;42.502;24.188;2022-11-11T08:12:12;96377.91;;;11.72;100.00
8366;BME280;4220;42.502;24.188;2022-11-11T08:14:56;96368.78;;;11.81;100.00
8366;BME280;4220;42.502;24.188;2022-11-11T08:17:23;96365.78;;;11.63;100.00
8366;BME280;4220;42.502;24.188;2022-11-11T08:19:50;96383.91;;;11.80;100.00
8366;BME280;4220;42.502;24.188;2022-11-11T08:22:17;96392.59;;;12.02;100.00
8366;BME280;4220;42.502;24.188;2022-11-11T08:24:44;96406.69;;;12.57;100.00
8366;BME280;4220;42.502;24.188;2022-11-11T08:27:10;96407.50;;;12.57;100.00
8366;BME280;4220;42.502;24.188;2022-11-11T08:29:39;96387.41;;;12.41;100.00
8366;BME280;4220;42.502;24.188;2022-11-11T08:32:05;96411.31;;;12.28;100.00
8366;BME280;4220;42.502;24.188;2022-11-11T08:34:33;96394.72;;;12.26;100.00
8366;BME280;4220;42.502;24.188;2022-11-11T08:37:00;96402.84;;;12.12;100.00
8366;BME280;4220;42.502;24.188;2022-11-11T08:39:27;96409.81;;;12.06;100.00
8366;BME280;4220;42.502;24.188;2022-11-11T08:41:54;96377.38;;;11.83;100.00
8366;BME280;4220;42.502;24.188;2022-11-11T08:44:20;96414.25;;;11.99;100.00
8366;BME280;4220;42.502;24.188;2022-11-11T08:46:49;96415.47;;;11.97;100.00
8366;BME280;4220;42.502;24.188;2022-11-11T08:49:15;96407.47;;;11.90;100.00
8366;BME280;4220;42.502;24.188;2022-11-11T08:51:42;96406.38;;;11.78;100.00
8366;BME280;4220;42.502;24.188;2022-11-11T08:54:09;96415.28;;;11.64;100.00
8366;BME280;4220;42.502;24.188;2022-11-11T08:56:36;96426.91;;;11.63;100.00
8366;BME280;4220;42.502;24.188;2022-11-11T08:59:02;96424.34;;;11.69;100.00
8366;BME280;4220;42.502;24.188;2022-11-11T09:01:29;96426.28;;;11.61;100.00
8366;BME280;4220;42.502;24.188;2022-11-11T09:03:58;96414.56;;;11.49;100.00
8366;BME280;4220;42.502;24.188;2022-11-11T09:06:24;96423.78;;;11.53;100.00
8366;BME280;4220;42.502;24.188;2022-11-11T09:08:51;96451.34;;;11.73;100.00
8366;BME280;4220;42.502;24.188;2022-11-11T09:11:18;96438.75;;;11.88;100.00
8366;BME280;4220;42.502;24.188;2022-11-11T09:13:45;96448.47;;;12.09;100.00
8366;BME280;4220;42.502;24.188;2022-11-11T09:16:13;96461.88;;;12.28;100.00
8366;BME280;4220;42.502;24.188;2022-11-11T09:18:40;96449.22;;;12.43;100.00
8366;BME280;4220;42.502;24.188;2022-11-11T09:21:08;96453.38;;;12.66;100.00
8366;BME280;4220;42.502;24.188;2022-11-11T09:23:35;96451.38;;;12.81;100.00
8366;BME280;4220;42.502;24.188;2022-11-11T09:26:01;96475.19;;;13.02;100.00
8366;BME280;4220;42.502;24.188;2022-11-11T09:28:30;96477.25;;;13.20;100.00
8366;BME280;4220;42.502;24.188;2022-11-11T09:30:58;96470.31;;;13.19;100.00
8366;BME280;4220;42.502;24.188;2022-11-11T09:33:25;96461.88;;;13.02;100.00
8366;BME280;4220;42.502;24.188;2022-11-11T09:35:52;96450.97;;;12.84;100.00
8366;BME280;4220;42.502;24.188;2022-11-11T09:38:20;96460.41;;;12.93;100.00
8366;BME280;4220;42.502;24.188;2022-11-11T09:40:59;96450.22;;;13.09;100.00
8366;BME280;4220;42.502;24.188;2022-11-11T09:43:36;96464.34;;;13.30;100.00
8366;BME280;4220;42.502;24.188;2022-11-11T09:46:16;96460.88;;;13.42;100.00
8366;BME280;4220;42.502;24.188;2022-11-11T09:51:42;96452.50;;;13.19;100.00
8366;BME280;4220;42.502;24.188;2022-11-11T09:54:16;96452.47;;;13.26;100.00
8366;BME280;4220;42.502;24.188;2022-11-11T09:56:44;96460.06;;;13.42;100.00
8366;BME280;4220;42.502;24.188;2022-11-11T09:59:15;96458.41;;;13.67;100.00
8366;BME280;4220;42.502;24.188;2022-11-11T10:01:46;96462.03;;;13.99;100.00
8366;BME280;4220;42.502;24.188;2022-11-11T10:04:22;96462.03;;;13.99;100.00
8366;BME280;4220;42.502;24.188;2022-11-11T10:06:54;96467.16;;;14.07;100.00
8366;BME280;4220;42.502;24.188;2022-11-11T10:09:27;96467.34;;;14.12;100.00
8366;BME280;4220;42.502;24.188;2022-11-11T10:12:04;96459.88;;;14.40;100.00
8366;BME280;4220;42.502;24.188;2022-11-11T10:14:36;96461.47;;;14.48;97.78
8366;BME280;4220;42.502;24.188;2022-11-11T10:17:10;96461.41;;;14.10;99.33
8366;BME280;4220;42.502;24.188;2022-11-11T10:19:49;96451.19;;;13.87;100.00
8366;BME280;4220;42.502;24.188;2022-11-11T10:22:21;96453.19;;;14.05;100.00
8366;BME280;4220;42.502;24.188;2022-11-11T10:25:06;96458.28;;;14.19;100.00
8366;BME280;4220;42.502;24.188;2022-11-11T10:27:33;96456.78;;;14.30;100.00
8366;BME280;4220;42.502;24.188;2022-11-11T10:30:07;96451.25;;;14.38;99.25
8366;BME280;4220;42.502;24.188;2022-11-11T10:32:40;96450.06;;;14.72;98.85
8366;BME280;4220;42.502;24.188;2022-11-11T10:35:14;96448.66;;;15.32;97.15
8366;BME280;4220;42.502;24.188;2022-11-11T10:37:42;96443.38;;;15.93;94.10
8366;BME280;4220;42.502;24.188;2022-11-11T10:40:17;96460.13;;;16.24;91.27
8366;BME280;4220;42.502;24.188;2022-11-11T10:42:46;96458.19;;;15.77;90.03
8366;BME280;4220;42.502;24.188;2022-11-11T10:45:21;96446.44;;;14.97;93.09
8366;BME280;4220;42.502;24.188;2022-11-11T10:47:54;96436.91;;;14.26;95.78
8366;BME280;4220;42.502;24.188;2022-11-11T10:50:28;96448.44;;;14.13;96.02
8366;BME280;4220;42.502;24.188;2022-11-11T10:52:59;96449.31;;;14.07;95.76
8366;BME280;4220;42.502;24.188;2022-11-11T10:55:32;96450.56;;;13.78;97.98
8366;BME280;4220;42.502;24.188;2022-11-11T10:58:06;96423.94;;;13.59;98.27
8366;BME280;4220;42.502;24.188;2022-11-11T11:00:37;96446.94;;;13.53;97.65
8366;BME280;4220;42.502;24.188;2022-11-11T11:03:10;96443.03;;;13.49;97.54
8366;BME280;4220;42.502;24.188;2022-11-11T11:05:43;96426.63;;;13.39;97.80
8366;BME280;4220;42.502;24.188;2022-11-11T11:08:15;96425.00;;;13.32;98.35
8366;BME280;4220;42.502;24.188;2022-11-11T11:10:47;96424.00;;;13.26;97.45
8366;BME280;4220;42.502;24.188;2022-11-11T11:13:17;96430.53;;;13.30;97.10
8366;BME280;4220;42.502;24.188;2022-11-11T11:15:53;96422.75;;;13.35;96.53
8366;BME280;4220;42.502;24.188;2022-11-11T11:18:22;96412.50;;;13.45;96.36
8366;BME280;4220;42.502;24.188;2022-11-11T11:20:56;96429.28;;;13.59;94.25
8366;BME280;4220;42.502;24.188;2022-11-11T11:23:38;96426.84;;;13.57;96.43
8366;BME280;4220;42.502;24.188;2022-11-11T11:26:08;96429.53;;;13.38;97.78
8366;BME280;4220;42.502;24.188;2022-11-11T11:28:51;96435.25;;;13.28;98.94
8366;BME280;4220;42.502;24.188;2022-11-11T11:31:33;96438.13;;;13.20;99.06
8366;BME280;4220;42.502;24.188;2022-11-11T11:34:00;96435.84;;;13.17;99.29
8366;BME280;4220;42.502;24.188;2022-11-11T11:36:27;96429.69;;;13.03;99.85
8366;BME280;4220;42.502;24.188;2022-11-11T11:38:53;96433.19;;;13.17;99.00
8366;BME280;4220;42.502;24.188;2022-11-11T11:41:35;96436.69;;;13.37;98.15
8366;BME280;4220;42.502;24.188;2022-11-11T11:44:02;96415.41;;;13.24;97.79
8366;BME280;4220;42.502;24.188;2022-11-11T11:46:34;96438.13;;;13.40;97.76
8366;BME280;4220;42.502;24.188;2022-11-11T11:49:11;96440.59;;;13.48;97.04
8366;BME280;4220;42.502;24.188;2022-11-11T11:51:50;96439.94;;;13.59;96.02
8366;BME280;4220;42.502;24.188;2022-11-11T11:54:37;96443.22;;;13.81;95.09
8366;BME280;4220;42.502;24.188;2022-11-11T11:57:20;96442.16;;;13.82;94.59
8366;BME280;4220;42.502;24.188;2022-11-11T11:59:56;96439.53;;;13.62;95.65
8366;BME280;4220;42.502;24.188;2022-11-11T12:05:33;96415.16;;;13.58;95.36
8366;BME280;4220;42.502;24.188;2022-11-11T12:08:17;96450.97;;;13.89;94.52
8366;BME280;4220;42.502;24.188;2022-11-11T12:10:55;96440.50;;;13.94;93.13
8366;BME280;4220;42.502;24.188;2022-11-11T12:13:34;96438.03;;;14.05;93.21
8366;BME280;4220;42.502;24.188;2022-11-11T12:16:19;96430.19;;;14.17;91.97
8366;BME280;4220;42.502;24.188;2022-11-11T12:19:00;96431.00;;;14.11;91.83
8366;BME280;4220;42.502;24.188;2022-11-11T12:21:36;96436.22;;;13.93;91.78
8366;BME280;4220;42.502;24.188;2022-11-11T12:24:12;96441.59;;;13.73;92.09
8366;BME280;4220;42.502;24.188;2022-11-11T12:26:51;96437.91;;;13.54;93.23
8366;BME280;4220;42.502;24.188;2022-11-11T12:29:34;96413.31;;;13.39;93.67
8366;BME280;4220;42.502;24.188;2022-11-11T12:35:11;96437.22;;;13.92;92.62
8366;BME280;4220;42.502;24.188;2022-11-11T12:37:47;96432.13;;;13.90;91.81
8366;BME280;4220;42.502;24.188;2022-11-11T12:40:24;96421.69;;;13.69;92.34
8366;BME280;4220;42.502;24.188;2022-11-11T12:43:09;96433.19;;;13.56;93.01
8366;BME280;4220;42.502;24.188;2022-11-11T12:45:46;96431.56;;;13.68;92.85
8366;BME280;4220;42.502;24.188;2022-11-11T12:51:14;96432.13;;;13.77;91.88
8366;BME280;4220;42.502;24.188;2022-11-11T12:53:52;96430.72;;;13.61;92.17
8366;BME280;4220;42.502;24.188;2022-11-11T12:56:28;96428.91;;;13.55;92.27
8366;BME280;4220;42.502;24.188;2022-11-11T12:59:02;96430.75;;;13.48;92.79
8366;BME280;4220;42.502;24.188;2022-11-11T13:01:42;96429.09;;;13.47;93.05
8366;BME280;4220;42.502;24.188;2022-11-11T13:04:34;96420.50;;;13.39;93.49
8366;BME280;4220;42.502;24.188;2022-11-11T13:07:27;96420.69;;;13.37;93.30
8366;BME280;4220;42.502;24.188;2022-11-11T13:10:11;96416.63;;;13.28;93.41
8366;BME280;4220;42.502;24.188;2022-11-11T13:12:44;96410.03;;;13.18;94.64
8366;BME280;4220;42.502;24.188;2022-11-11T13:15:17;96405.34;;;13.13;94.76
8366;BME280;4220;42.502;24.188;2022-11-11T13:17:47;96366.34;;;12.73;95.38
8366;BME280;4220;42.502;24.188;2022-11-11T13:20:34;96414.50;;;12.97;95.09
8366;BME280;4220;42.502;24.188;2022-11-11T13:23:07;96420.25;;;13.01;96.11
8366;BME280;4220;42.502;24.188;2022-11-11T13:25:36;96413.72;;;13.10;97.19
8366;BME280;4220;42.502;24.188;2022-11-11T13:28:07;96409.66;;;13.21;95.66
8366;BME280;4220;42.502;24.188;2022-11-11T13:30:45;96420.91;;;13.16;95.39
8366;BME280;4220;42.502;24.188;2022-11-11T13:33:19;96419.50;;;13.07;97.55
8366;BME280;4220;42.502;24.188;2022-11-11T13:35:49;96412.94;;;13.16;97.53
8366;BME280;4220;42.502;24.188;2022-11-11T13:38:26;96415.81;;;13.21;92.13
8366;BME280;4220;42.502;24.188;2022-11-11T13:40:56;96417.84;;;13.39;90.59